sensor_id;sensor_type;location;lat;lon;timestamp;P1;durP1;ratioP1;P2;durP2;ratioP2
27722;SDS011;15123;-37.794;175.246;2023-08-31T00:00:50;5.85;;;3.10;;
27722;SDS011;15123;-37.794;175.246;2023-08-31T00:04:15;5.15;;;2.40;;
27722;SDS011;15123;-37.794;175.246;2023-08-31T00:07:39;6.05;;;2.58;;
27722;SDS011;15123;-37.794;175.246;2023-08-31T00:11:04;7.30;;;2.88;;
27722;SDS011;15123;-37.794;175.246;2023-08-31T00:14:28;7.07;;;2.45;;
27722;SDS011;15123;-37.794;175.246;2023-08-31T00:17:53;7.72;;;2.20;;
27722;SDS011;15123;-37.794;175.246;2023-08-31T00:21:17;7.03;;;2.28;;
27722;SDS011;15123;-37.794;175.246;2023-08-31T00:24:41;8.05;;;2.40;;
27722;SDS011;15123;-37.794;175.246;2023-08-31T00:28:06;5.53;;;2.00;;
27722;SDS011;15123;-37.794;175.246;2023-08-31T00:31:32;6.00;;;1.80;;
27722;SDS011;15123;-37.794;175.246;2023-08-31T00:35:00;7.22;;;2.40;;
27722;SDS011;15123;-37.794;175.246;2023-08-31T00:38:25;5.60;;;1.90;;
27722;SDS011;15123;-37.794;175.246;2023-08-31T00:41:49;5.88;;;1.80;;
27722;SDS011;15123;-37.794;175.246;2023-08-31T00:45:13;6.22;;;1.80;;
27722;SDS011;15123;-37.794;175.246;2023-08-31T00:48:38;4.32;;;1.08;;
27722;SDS011;15123;-37.794;175.246;2023-08-31T00:52:02;3.83;;;1.05;;
27722;SDS011;15123;-37.794;175.246;2023-08-31T00:55:27;4.70;;;1.40;;
27722;SDS011;15123;-37.794;175.246;2023-08-31T00:58:51;5.15;;;1.20;;
27722;SDS011;15123;-37.794;175.246;2023-08-31T01:02:34;5.07;;;1.40;;
27722;SDS011;15123;-37.794;175.246;2023-08-31T01:06:13;5.32;;;1.42;;
27722;SDS011;15123;-37.794;175.246;2023-08-31T01:09:54;5.60;;;1.50;;
27722;SDS011;15123;-37.794;175.246;2023-08-31T01:13:39;6.50;;;1.63;;
27722;SDS011;15123;-37.794;175.246;2023-08-31T01:17:05;6.90;;;2.40;;
27722;SDS011;15123;-37.794;175.246;2023-08-31T01:20:38;5.45;;;1.40;;
27722;SDS011;15123;-37.794;175.246;2023-08-31T01:24:10;4.65;;;1.33;;
27722;SDS011;15123;-37.794;175.246;2023-08-31T01:27:34;4.03;;;1.13;;
27722;SDS011;15123;-37.794;175.246;2023-08-31T01:31:03;4.78;;;1.38;;
27722;SDS011;15123;-37.794;175.246;2023-08-31T01:34:28;6.68;;;1.98;;
27722;SDS011;15123;-37.794;175.246;2023-08-31T01:38:02;6.07;;;1.60;;
27722;SDS011;15123;-37.794;175.246;2023-08-31T01:41:28;6.05;;;1.67;;
27722;SDS011;15123;-37.794;175.246;2023-08-31T01:44:52;5.82;;;1.58;;
27722;SDS011;15123;-37.794;175.246;2023-08-31T01:48:17;3.83;;;1.30;;
27722;SDS011;15123;-37.794;175.246;2023-08-31T01:51:43;4.88;;;1.38;;
27722;SDS011;15123;-37.794;175.246;2023-08-31T01:55:07;4.20;;;1.40;;
27722;SDS011;15123;-37.794;175.246;2023-08-31T01:58:34;5.80;;;1.20;;
27722;SDS011;15123;-37.794;175.246;2023-08-31T02:01:58;4.55;;;0.95;;
27722;SDS011;15123;-37.794;175.246;2023-08-31T02:05:23;3.75;;;1.10;;
27722;SDS011;15123;-37.794;175.246;2023-08-31T02:08:49;4.38;;;1.10;;
27722;SDS011;15123;-37.794;175.246;2023-08-31T02:12:13;5.00;;;1.27;;
27722;SDS011;15123;-37.794;175.246;2023-08-31T02:15:40;3.97;;;1.23;;
27722;SDS011;15123;-37.794;175.246;2023-08-31T02:19:05;7.43;;;1.50;;
27722;SDS011;15123;-37.794;175.246;2023-08-31T02:22:29;4.93;;;1.20;;
27722;SDS011;15123;-37.794;175.246;2023-08-31T02:25:55;4.18;;;1.10;;
27722;SDS011;15123;-37.794;175.246;2023-08-31T02:29:20;5.05;;;1.10;;
27722;SDS011;15123;-37.794;175.246;2023-08-31T02:32:44;5.07;;;1.02;;
27722;SDS011;15123;-37.794;175.246;2023-08-31T02:36:08;3.70;;;0.98;;
27722;SDS011;15123;-37.794;175.246;2023-08-31T02:39:32;4.28;;;0.80;;
27722;SDS011;15123;-37.794;175.246;2023-08-31T02:42:57;3.42;;;0.90;;
27722;SDS011;15123;-37.794;175.246;2023-08-31T02:46:23;2.80;;;0.88;;
27722;SDS011;15123;-37.794;175.246;2023-08-31T02:49:47;4.90;;;1.00;;
27722;SDS011;15123;-37.794;175.246;2023-08-31T02:53:12;5.30;;;0.80;;
27722;SDS011;15123;-37.794;175.246;2023-08-31T02:56:37;4.97;;;1.10;;
27722;SDS011;15123;-37.794;175.246;2023-08-31T03:00:02;5.53;;;1.00;;
27722;SDS011;15123;-37.794;175.246;2023-08-31T03:03:29;4.22;;;0.98;;
27722;SDS011;15123;-37.794;175.246;2023-08-31T03:06:55;3.70;;;0.82;;
27722;SDS011;15123;-37.794;175.246;2023-08-31T03:10:21;3.63;;;0.80;;
27722;SDS011;15123;-37.794;175.246;2023-08-31T03:13:45;3.50;;;0.73;;
27722;SDS011;15123;-37.794;175.246;2023-08-31T03:17:10;3.95;;;0.90;;
27722;SDS011;15123;-37.794;175.246;2023-08-31T03:20:35;3.40;;;0.90;;
27722;SDS011;15123;-37.794;175.246;2023-08-31T03:23:59;4.40;;;0.88;;
27722;SDS011;15123;-37.794;175.246;2023-08-31T03:27:42;3.67;;;0.90;;
27722;SDS011;15123;-37.794;175.246;2023-08-31T03:31:05;3.25;;;0.70;;
27722;SDS011;15123;-37.794;175.246;2023-08-31T03:34:32;4.55;;;0.77;;
27722;SDS011;15123;-37.794;175.246;2023-08-31T03:37:50;3.33;;;0.65;;
27722;SDS011;15123;-37.794;175.246;2023-08-31T03:41:13;3.33;;;0.80;;
27722;SDS011;15123;-37.794;175.246;2023-08-31T03:44:40;3.42;;;0.90;;
27722;SDS011;15123;-37.794;175.246;2023-08-31T03:48:03;3.38;;;0.70;;
27722;SDS011;15123;-37.794;175.246;2023-08-31T03:51:27;3.92;;;0.70;;
27722;SDS011;15123;-37.794;175.246;2023-08-31T03:54:50;3.67;;;0.60;;
27722;SDS011;15123;-37.794;175.246;2023-08-31T03:58:14;3.78;;;0.60;;
27722;SDS011;15123;-37.794;175.246;2023-08-31T04:01:37;4.03;;;0.70;;
27722;SDS011;15123;-37.794;175.246;2023-08-31T04:05:02;3.03;;;0.50;;
27722;SDS011;15123;-37.794;175.246;2023-08-31T04:08:26;2.65;;;0.60;;
27722;SDS011;15123;-37.794;175.246;2023-08-31T04:11:49;3.42;;;0.60;;
27722;SDS011;15123;-37.794;175.246;2023-08-31T04:15:12;3.78;;;0.95;;
27722;SDS011;15123;-37.794;175.246;2023-08-31T04:18:38;3.40;;;0.68;;
27722;SDS011;15123;-37.794;175.246;2023-08-31T04:22:06;2.25;;;0.60;;
27722;SDS011;15123;-37.794;175.246;2023-08-31T04:25:29;3.28;;;0.60;;
27722;SDS011;15123;-37.794;175.246;2023-08-31T04:28:54;2.78;;;0.65;;
27722;SDS011;15123;-37.794;175.246;2023-08-31T04:32:19;2.90;;;0.45;;
27722;SDS011;15123;-37.794;175.246;2023-08-31T04:35:44;2.95;;;0.70;;
27722;SDS011;15123;-37.794;175.246;2023-08-31T04:39:10;2.40;;;0.60;;
27722;SDS011;15123;-37.794;175.246;2023-08-31T04:42:33;3.65;;;0.60;;
27722;SDS011;15123;-37.794;175.246;2023-08-31T04:45:56;1.58;;;0.68;;
27722;SDS011;15123;-37.794;175.246;2023-08-31T04:49:19;3.33;;;0.70;;
27722;SDS011;15123;-37.794;175.246;2023-08-31T04:52:42;3.05;;;0.50;;
27722;SDS011;15123;-37.794;175.246;2023-08-31T04:56:05;3.72;;;0.50;;
27722;SDS011;15123;-37.794;175.246;2023-08-31T04:59:28;5.93;;;0.70;;
27722;SDS011;15123;-37.794;175.246;2023-08-31T05:02:52;3.13;;;0.50;;
27722;SDS011;15123;-37.794;175.246;2023-08-31T05:06:15;3.17;;;0.50;;
27722;SDS011;15123;-37.794;175.246;2023-08-31T05:09:38;3.20;;;0.50;;
27722;SDS011;15123;-37.794;175.246;2023-08-31T05:13:01;4.00;;;0.65;;
27722;SDS011;15123;-37.794;175.246;2023-08-31T05:16:26;5.97;;;1.30;;
27722;SDS011;15123;-37.794;175.246;2023-08-31T05:19:50;4.80;;;1.25;;
27722;SDS011;15123;-37.794;175.246;2023-08-31T05:23:14;6.72;;;1.50;;
27722;SDS011;15123;-37.794;175.246;2023-08-31T05:26:37;4.50;;;1.05;;
27722;SDS011;15123;-37.794;175.246;2023-08-31T05:30:02;4.50;;;0.80;;
27722;SDS011;15123;-37.794;175.246;2023-08-31T05:33:26;4.32;;;0.98;;
27722;SDS011;15123;-37.794;175.246;2023-08-31T05:36:50;6.68;;;1.60;;
27722;SDS011;15123;-37.794;175.246;2023-08-31T05:40:13;7.55;;;2.35;;
27722;SDS011;15123;-37.794;175.246;2023-08-31T05:43:36;9.93;;;2.42;;
27722;SDS011;15123;-37.794;175.246;2023-08-31T05:47:01;7.22;;;1.48;;
27722;SDS011;15123;-37.794;175.246;2023-08-31T05:50:25;4.72;;;1.38;;
27722;SDS011;15123;-37.794;175.246;2023-08-31T05:53:48;4.53;;;1.10;;
27722;SDS011;15123;-37.794;175.246;2023-08-31T05:57:11;7.57;;;1.42;;
27722;SDS011;15123;-37.794;175.246;2023-08-31T06:00:35;6.10;;;1.25;;
27722;SDS011;15123;-37.794;175.246;2023-08-31T06:03:59;6.05;;;2.00;;
27722;SDS011;15123;-37.794;175.246;2023-08-31T06:07:22;6.43;;;1.30;;
27722;SDS011;15123;-37.794;175.246;2023-08-31T06:10:38;8.63;;;2.13;;
27722;SDS011;15123;-37.794;175.246;2023-08-31T06:14:02;5.82;;;1.88;;
27722;SDS011;15123;-37.794;175.246;2023-08-31T06:17:25;6.47;;;2.13;;
27722;SDS011;15123;-37.794;175.246;2023-08-31T06:20:50;6.78;;;2.17;;
27722;SDS011;15123;-37.794;175.246;2023-08-31T06:24:13;5.00;;;1.20;;
27722;SDS011;15123;-37.794;175.246;2023-08-31T06:27:36;5.35;;;1.00;;
27722;SDS011;15123;-37.794;175.246;2023-08-31T06:30:59;5.60;;;1.00;;
27722;SDS011;15123;-37.794;175.246;2023-08-31T06:34:17;4.18;;;1.15;;
27722;SDS011;15123;-37.794;175.246;2023-08-31T06:37:33;4.72;;;1.10;;
27722;SDS011;15123;-37.794;175.246;2023-08-31T06:40:57;14.43;;;4.50;;
27722;SDS011;15123;-37.794;175.246;2023-08-31T06:44:22;10.82;;;4.00;;
27722;SDS011;15123;-37.794;175.246;2023-08-31T06:47:46;5.65;;;1.92;;
27722;SDS011;15123;-37.794;175.246;2023-08-31T06:51:10;6.80;;;2.63;;
27722;SDS011;15123;-37.794;175.246;2023-08-31T06:54:33;10.68;;;4.22;;
27722;SDS011;15123;-37.794;175.246;2023-08-31T06:57:57;8.93;;;3.28;;
27722;SDS011;15123;-37.794;175.246;2023-08-31T07:01:21;7.93;;;2.22;;
27722;SDS011;15123;-37.794;175.246;2023-08-31T07:04:45;5.97;;;1.40;;
27722;SDS011;15123;-37.794;175.246;2023-08-31T07:08:08;6.63;;;1.45;;
27722;SDS011;15123;-37.794;175.246;2023-08-31T07:11:32;6.03;;;1.40;;
27722;SDS011;15123;-37.794;175.246;2023-08-31T07:14:56;6.80;;;1.50;;
27722;SDS011;15123;-37.794;175.246;2023-08-31T07:18:19;5.53;;;1.27;;
27722;SDS011;15123;-37.794;175.246;2023-08-31T07:21:42;5.15;;;1.13;;
27722;SDS011;15123;-37.794;175.246;2023-08-31T07:25:05;5.90;;;1.90;;
27722;SDS011;15123;-37.794;175.246;2023-08-31T07:28:28;7.22;;;2.17;;
27722;SDS011;15123;-37.794;175.246;2023-08-31T07:31:51;7.97;;;2.22;;
27722;SDS011;15123;-37.794;175.246;2023-08-31T07:35:09;7.03;;;2.10;;
27722;SDS011;15123;-37.794;175.246;2023-08-31T07:38:27;9.20;;;3.22;;
27722;SDS011;15123;-37.794;175.246;2023-08-31T07:41:50;8.63;;;2.80;;
27722;SDS011;15123;-37.794;175.246;2023-08-31T07:45:16;7.70;;;3.08;;
27722;SDS011;15123;-37.794;175.246;2023-08-31T07:48:40;7.85;;;3.10;;
27722;SDS011;15123;-37.794;175.246;2023-08-31T07:52:05;8.27;;;3.50;;
27722;SDS011;15123;-37.794;175.246;2023-08-31T07:55:28;8.02;;;3.28;;
27722;SDS011;15123;-37.794;175.246;2023-08-31T07:58:52;7.32;;;3.45;;
27722;SDS011;15123;-37.794;175.246;2023-08-31T08:02:15;6.60;;;1.95;;
27722;SDS011;15123;-37.794;175.246;2023-08-31T08:05:39;7.25;;;2.10;;
27722;SDS011;15123;-37.794;175.246;2023-08-31T08:09:03;7.15;;;2.13;;
27722;SDS011;15123;-37.794;175.246;2023-08-31T08:12:27;8.00;;;1.60;;
27722;SDS011;15123;-37.794;175.246;2023-08-31T08:15:50;3.80;;;1.15;;
27722;SDS011;15123;-37.794;175.246;2023-08-31T08:19:13;6.05;;;1.30;;
27722;SDS011;15123;-37.794;175.246;2023-08-31T08:22:37;8.27;;;1.48;;
27722;SDS011;15123;-37.794;175.246;2023-08-31T08:26:01;9.07;;;1.60;;
27722;SDS011;15123;-37.794;175.246;2023-08-31T08:29:27;7.20;;;1.65;;
27722;SDS011;15123;-37.794;175.246;2023-08-31T08:32:44;7.43;;;2.35;;
27722;SDS011;15123;-37.794;175.246;2023-08-31T08:36:08;9.75;;;3.60;;
27722;SDS011;15123;-37.794;175.246;2023-08-31T08:39:32;7.43;;;2.72;;
27722;SDS011;15123;-37.794;175.246;2023-08-31T08:42:56;5.55;;;1.38;;
27722;SDS011;15123;-37.794;175.246;2023-08-31T08:46:22;5.72;;;1.30;;
27722;SDS011;15123;-37.794;175.246;2023-08-31T08:49:45;6.40;;;1.67;;
27722;SDS011;15123;-37.794;175.246;2023-08-31T08:53:11;6.20;;;1.70;;
27722;SDS011;15123;-37.794;175.246;2023-08-31T08:56:35;6.13;;;1.42;;
27722;SDS011;15123;-37.794;175.246;2023-08-31T08:59:59;8.27;;;2.88;;
27722;SDS011;15123;-37.794;175.246;2023-08-31T09:03:23;11.60;;;5.05;;
27722;SDS011;15123;-37.794;175.246;2023-08-31T09:06:47;10.05;;;4.03;;
27722;SDS011;15123;-37.794;175.246;2023-08-31T09:10:12;10.70;;;5.20;;
27722;SDS011;15123;-37.794;175.246;2023-08-31T09:13:47;14.35;;;6.03;;
27722;SDS011;15123;-37.794;175.246;2023-08-31T09:17:13;12.93;;;5.10;;
27722;SDS011;15123;-37.794;175.246;2023-08-31T09:20:45;12.30;;;4.82;;
27722;SDS011;15123;-37.794;175.246;2023-08-31T09:24:11;15.87;;;5.77;;
27722;SDS011;15123;-37.794;175.246;2023-08-31T09:27:37;17.23;;;6.15;;
27722;SDS011;15123;-37.794;175.246;2023-08-31T09:31:06;18.02;;;6.72;;
27722;SDS011;15123;-37.794;175.246;2023-08-31T09:34:33;15.00;;;6.30;;
27722;SDS011;15123;-37.794;175.246;2023-08-31T09:38:09;15.20;;;6.65;;
27722;SDS011;15123;-37.794;175.246;2023-08-31T09:41:33;22.73;;;8.80;;
27722;SDS011;15123;-37.794;175.246;2023-08-31T09:44:57;19.58;;;8.20;;
27722;SDS011;15123;-37.794;175.246;2023-08-31T09:48:21;16.95;;;6.43;;
27722;SDS011;15123;-37.794;175.246;2023-08-31T09:51:46;17.13;;;6.55;;
27722;SDS011;15123;-37.794;175.246;2023-08-31T09:55:12;16.02;;;6.25;;
27722;SDS011;15123;-37.794;175.246;2023-08-31T09:58:36;15.40;;;7.00;;
27722;SDS011;15123;-37.794;175.246;2023-08-31T10:02:01;16.95;;;7.30;;
27722;SDS011;15123;-37.794;175.246;2023-08-31T10:05:26;13.32;;;5.78;;
27722;SDS011;15123;-37.794;175.246;2023-08-31T10:08:50;10.88;;;4.80;;
27722;SDS011;15123;-37.794;175.246;2023-08-31T10:12:14;9.48;;;3.63;;
27722;SDS011;15123;-37.794;175.246;2023-08-31T10:15:38;12.30;;;3.58;;
27722;SDS011;15123;-37.794;175.246;2023-08-31T10:19:03;9.68;;;3.15;;
27722;SDS011;15123;-37.794;175.246;2023-08-31T10:22:27;10.75;;;3.17;;
27722;SDS011;15123;-37.794;175.246;2023-08-31T10:29:26;11.88;;;3.65;;
27722;SDS011;15123;-37.794;175.246;2023-08-31T10:36:40;33.23;;;15.50;;
27722;SDS011;15123;-37.794;175.246;2023-08-31T10:40:21;64.72;;;32.25;;
27722;SDS011;15123;-37.794;175.246;2023-08-31T10:43:46;66.78;;;36.20;;
27722;SDS011;15123;-37.794;175.246;2023-08-31T10:47:11;68.95;;;42.22;;
27722;SDS011;15123;-37.794;175.246;2023-08-31T10:50:42;60.28;;;35.88;;
27722;SDS011;15123;-37.794;175.246;2023-08-31T10:54:08;38.42;;;23.63;;
27722;SDS011;15123;-37.794;175.246;2023-08-31T10:57:32;33.63;;;17.92;;
27722;SDS011;15123;-37.794;175.246;2023-08-31T11:01:00;28.70;;;15.88;;
27722;SDS011;15123;-37.794;175.246;2023-08-31T11:04:27;31.08;;;16.63;;
27722;SDS011;15123;-37.794;175.246;2023-08-31T11:07:54;28.58;;;15.55;;
27722;SDS011;15123;-37.794;175.246;2023-08-31T11:11:17;31.42;;;16.33;;
27722;SDS011;15123;-37.794;175.246;2023-08-31T11:14:44;35.35;;;19.05;;
27722;SDS011;15123;-37.794;175.246;2023-08-31T11:18:12;33.88;;;17.30;;
27722;SDS011;15123;-37.794;175.246;2023-08-31T11:21:37;35.80;;;16.73;;
27722;SDS011;15123;-37.794;175.246;2023-08-31T11:25:01;30.85;;;16.60;;
27722;SDS011;15123;-37.794;175.246;2023-08-31T11:28:25;32.50;;;17.92;;
27722;SDS011;15123;-37.794;175.246;2023-08-31T11:31:50;31.60;;;17.38;;
27722;SDS011;15123;-37.794;175.246;2023-08-31T11:35:18;40.65;;;19.45;;
27722;SDS011;15123;-37.794;175.246;2023-08-31T11:38:49;70.53;;;27.85;;
27722;SDS011;15123;-37.794;175.246;2023-08-31T11:42:14;38.05;;;18.05;;
27722;SDS011;15123;-37.794;175.246;2023-08-31T11:45:39;32.70;;;15.45;;
27722;SDS011;15123;-37.794;175.246;2023-08-31T11:49:05;30.50;;;14.82;;
27722;SDS011;15123;-37.794;175.246;2023-08-31T11:52:30;34.95;;;14.57;;
27722;SDS011;15123;-37.794;175.246;2023-08-31T11:55:55;34.65;;;15.10;;
27722;SDS011;15123;-37.794;175.246;2023-08-31T11:59:20;39.05;;;16.13;;
27722;SDS011;15123;-37.794;175.246;2023-08-31T12:02:45;31.75;;;13.68;;
27722;SDS011;15123;-37.794;175.246;2023-08-31T12:06:09;58.10;;;19.67;;
27722;SDS011;15123;-37.794;175.246;2023-08-31T12:09:36;55.00;;;20.33;;
27722;SDS011;15123;-37.794;175.246;2023-08-31T12:13:09;44.95;;;17.00;;
27722;SDS011;15123;-37.794;175.246;2023-08-31T12:16:40;50.15;;;18.02;;
27722;SDS011;15123;-37.794;175.246;2023-08-31T12:20:04;53.80;;;19.15;;
27722;SDS011;15123;-37.794;175.246;2023-08-31T12:23:28;40.85;;;15.15;;
27722;SDS011;15123;-37.794;175.246;2023-08-31T12:26:53;33.85;;;13.40;;
27722;SDS011;15123;-37.794;175.246;2023-08-31T12:30:11;31.15;;;12.77;;
27722;SDS011;15123;-37.794;175.246;2023-08-31T12:33:30;24.42;;;9.90;;
27722;SDS011;15123;-37.794;175.246;2023-08-31T12:36:55;29.50;;;11.73;;
27722;SDS011;15123;-37.794;175.246;2023-08-31T12:40:21;27.52;;;11.50;;
27722;SDS011;15123;-37.794;175.246;2023-08-31T12:43:45;23.85;;;11.65;;
27722;SDS011;15123;-37.794;175.246;2023-08-31T12:47:02;29.73;;;13.32;;
27722;SDS011;15123;-37.794;175.246;2023-08-31T12:50:26;29.17;;;12.80;;
27722;SDS011;15123;-37.794;175.246;2023-08-31T12:53:50;24.45;;;11.50;;
27722;SDS011;15123;-37.794;175.246;2023-08-31T12:57:15;24.83;;;11.15;;
27722;SDS011;15123;-37.794;175.246;2023-08-31T13:00:39;27.10;;;11.77;;
27722;SDS011;15123;-37.794;175.246;2023-08-31T13:04:06;25.27;;;11.45;;
27722;SDS011;15123;-37.794;175.246;2023-08-31T13:07:31;25.38;;;11.75;;
27722;SDS011;15123;-37.794;175.246;2023-08-31T13:10:55;23.98;;;11.07;;
27722;SDS011;15123;-37.794;175.246;2023-08-31T13:14:22;21.83;;;10.50;;
27722;SDS011;15123;-37.794;175.246;2023-08-31T13:17:47;18.90;;;8.95;;
27722;SDS011;15123;-37.794;175.246;2023-08-31T13:21:11;20.23;;;9.18;;
27722;SDS011;15123;-37.794;175.246;2023-08-31T13:24:35;20.00;;;8.88;;
27722;SDS011;15123;-37.794;175.246;2023-08-31T13:28:00;20.73;;;9.52;;
27722;SDS011;15123;-37.794;175.246;2023-08-31T13:31:24;23.40;;;9.60;;
27722;SDS011;15123;-37.794;175.246;2023-08-31T13:34:49;20.88;;;8.57;;
27722;SDS011;15123;-37.794;175.246;2023-08-31T13:38:13;18.92;;;9.15;;
27722;SDS011;15123;-37.794;175.246;2023-08-31T13:41:37;20.13;;;9.27;;
27722;SDS011;15123;-37.794;175.246;2023-08-31T13:45:04;21.65;;;8.80;;
27722;SDS011;15123;-37.794;175.246;2023-08-31T13:48:32;16.88;;;7.82;;
27722;SDS011;15123;-37.794;175.246;2023-08-31T13:51:58;16.17;;;7.15;;
27722;SDS011;15123;-37.794;175.246;2023-08-31T13:55:22;17.25;;;8.13;;
27722;SDS011;15123;-37.794;175.246;2023-08-31T13:58:48;19.38;;;8.30;;
27722;SDS011;15123;-37.794;175.246;2023-08-31T14:02:13;19.77;;;8.60;;
27722;SDS011;15123;-37.794;175.246;2023-08-31T14:05:37;15.52;;;7.90;;
27722;SDS011;15123;-37.794;175.246;2023-08-31T14:09:01;16.20;;;7.47;;
27722;SDS011;15123;-37.794;175.246;2023-08-31T14:12:25;14.30;;;6.45;;
27722;SDS011;15123;-37.794;175.246;2023-08-31T14:15:49;15.35;;;6.80;;
27722;SDS011;15123;-37.794;175.246;2023-08-31T14:19:06;15.13;;;6.82;;
27722;SDS011;15123;-37.794;175.246;2023-08-31T14:22:30;14.15;;;6.85;;
27722;SDS011;15123;-37.794;175.246;2023-08-31T14:26:02;16.15;;;7.15;;
27722;SDS011;15123;-37.794;175.246;2023-08-31T14:29:27;18.92;;;8.48;;
27722;SDS011;15123;-37.794;175.246;2023-08-31T14:32:51;20.85;;;8.45;;
27722;SDS011;15123;-37.794;175.246;2023-08-31T14:36:15;17.13;;;8.55;;
27722;SDS011;15123;-37.794;175.246;2023-08-31T14:39:40;14.52;;;6.22;;
27722;SDS011;15123;-37.794;175.246;2023-08-31T14:43:04;15.85;;;6.47;;
27722;SDS011;15123;-37.794;175.246;2023-08-31T14:46:28;14.90;;;6.40;;
27722;SDS011;15123;-37.794;175.246;2023-08-31T14:49:52;17.65;;;7.03;;
27722;SDS011;15123;-37.794;175.246;2023-08-31T14:53:17;18.05;;;7.47;;
27722;SDS011;15123;-37.794;175.246;2023-08-31T14:56:41;14.45;;;7.10;;
27722;SDS011;15123;-37.794;175.246;2023-08-31T15:00:05;19.20;;;7.78;;
27722;SDS011;15123;-37.794;175.246;2023-08-31T15:03:31;16.70;;;7.40;;
27722;SDS011;15123;-37.794;175.246;2023-08-31T15:06:55;16.48;;;7.70;;
27722;SDS011;15123;-37.794;175.246;2023-08-31T15:10:20;17.17;;;8.00;;
27722;SDS011;15123;-37.794;175.246;2023-08-31T15:13:45;19.92;;;8.38;;
27722;SDS011;15123;-37.794;175.246;2023-08-31T15:17:06;16.42;;;7.55;;
27722;SDS011;15123;-37.794;175.246;2023-08-31T15:20:23;17.38;;;7.25;;
27722;SDS011;15123;-37.794;175.246;2023-08-31T15:23:48;19.90;;;8.27;;
27722;SDS011;15123;-37.794;175.246;2023-08-31T15:27:14;16.83;;;7.38;;
27722;SDS011;15123;-37.794;175.246;2023-08-31T15:30:39;14.75;;;5.68;;
27722;SDS011;15123;-37.794;175.246;2023-08-31T15:34:03;12.30;;;5.10;;
27722;SDS011;15123;-37.794;175.246;2023-08-31T15:37:28;10.63;;;4.45;;
27722;SDS011;15123;-37.794;175.246;2023-08-31T15:40:52;10.10;;;4.40;;
27722;SDS011;15123;-37.794;175.246;2023-08-31T15:44:17;9.35;;;4.07;;
27722;SDS011;15123;-37.794;175.246;2023-08-31T15:47:41;9.93;;;4.22;;
27722;SDS011;15123;-37.794;175.246;2023-08-31T15:51:05;10.55;;;4.07;;
27722;SDS011;15123;-37.794;175.246;2023-08-31T15:54:30;10.35;;;4.20;;
27722;SDS011;15123;-37.794;175.246;2023-08-31T15:57:56;8.50;;;3.63;;
27722;SDS011;15123;-37.794;175.246;2023-08-31T16:01:22;8.30;;;3.47;;
27722;SDS011;15123;-37.794;175.246;2023-08-31T16:04:48;8.23;;;3.55;;
27722;SDS011;15123;-37.794;175.246;2023-08-31T16:08:13;8.32;;;3.10;;
27722;SDS011;15123;-37.794;175.246;2023-08-31T16:11:40;9.70;;;3.05;;
27722;SDS011;15123;-37.794;175.246;2023-08-31T16:15:04;9.45;;;4.07;;
27722;SDS011;15123;-37.794;175.246;2023-08-31T16:18:28;5.63;;;2.03;;
27722;SDS011;15123;-37.794;175.246;2023-08-31T16:21:53;6.10;;;1.67;;
27722;SDS011;15123;-37.794;175.246;2023-08-31T16:25:17;4.38;;;1.30;;
27722;SDS011;15123;-37.794;175.246;2023-08-31T16:28:42;6.90;;;1.48;;
27722;SDS011;15123;-37.794;175.246;2023-08-31T16:32:06;9.30;;;1.50;;
27722;SDS011;15123;-37.794;175.246;2023-08-31T16:35:30;6.57;;;1.85;;
27722;SDS011;15123;-37.794;175.246;2023-08-31T16:38:56;5.05;;;1.40;;
27722;SDS011;15123;-37.794;175.246;2023-08-31T16:42:21;20.00;;;2.20;;
27722;SDS011;15123;-37.794;175.246;2023-08-31T16:45:45;9.75;;;2.25;;
27722;SDS011;15123;-37.794;175.246;2023-08-31T16:49:10;13.25;;;2.25;;
27722;SDS011;15123;-37.794;175.246;2023-08-31T16:52:34;16.73;;;2.35;;
27722;SDS011;15123;-37.794;175.246;2023-08-31T16:55:59;10.15;;;2.28;;
27722;SDS011;15123;-37.794;175.246;2023-08-31T16:59:23;11.15;;;2.53;;
27722;SDS011;15123;-37.794;175.246;2023-08-31T17:02:51;12.35;;;2.42;;
27722;SDS011;15123;-37.794;175.246;2023-08-31T17:06:15;22.63;;;2.85;;
27722;SDS011;15123;-37.794;175.246;2023-08-31T17:09:41;10.30;;;2.10;;
27722;SDS011;15123;-37.794;175.246;2023-08-31T17:13:05;10.85;;;1.95;;
27722;SDS011;15123;-37.794;175.246;2023-08-31T17:16:30;7.55;;;2.15;;
27722;SDS011;15123;-37.794;175.246;2023-08-31T17:19:50;11.27;;;1.83;;
27722;SDS011;15123;-37.794;175.246;2023-08-31T17:23:08;13.98;;;2.47;;
27722;SDS011;15123;-37.794;175.246;2023-08-31T17:26:32;9.10;;;2.08;;
27722;SDS011;15123;-37.794;175.246;2023-08-31T17:29:56;11.27;;;2.28;;
27722;SDS011;15123;-37.794;175.246;2023-08-31T17:33:23;6.60;;;1.70;;
27722;SDS011;15123;-37.794;175.246;2023-08-31T17:36:49;8.43;;;1.90;;
27722;SDS011;15123;-37.794;175.246;2023-08-31T17:40:13;10.23;;;1.73;;
27722;SDS011;15123;-37.794;175.246;2023-08-31T17:43:38;8.07;;;1.90;;
27722;SDS011;15123;-37.794;175.246;2023-08-31T17:47:03;10.18;;;1.73;;
27722;SDS011;15123;-37.794;175.246;2023-08-31T17:50:28;8.63;;;1.90;;
27722;SDS011;15123;-37.794;175.246;2023-08-31T17:53:53;7.85;;;1.92;;
27722;SDS011;15123;-37.794;175.246;2023-08-31T17:57:18;9.80;;;1.77;;
27722;SDS011;15123;-37.794;175.246;2023-08-31T18:00:44;7.10;;;1.70;;
27722;SDS011;15123;-37.794;175.246;2023-08-31T18:04:10;6.93;;;1.83;;
27722;SDS011;15123;-37.794;175.246;2023-08-31T18:07:34;11.63;;;2.25;;
27722;SDS011;15123;-37.794;175.246;2023-08-31T18:10:59;11.02;;;2.10;;
27722;SDS011;15123;-37.794;175.246;2023-08-31T18:14:23;24.67;;;3.53;;
27722;SDS011;15123;-37.794;175.246;2023-08-31T18:17:50;49.38;;;6.75;;
27722;SDS011;15123;-37.794;175.246;2023-08-31T18:21:14;19.85;;;3.25;;
27722;SDS011;15123;-37.794;175.246;2023-08-31T18:24:38;21.88;;;3.67;;
27722;SDS011;15123;-37.794;175.246;2023-08-31T18:28:02;9.50;;;2.97;;
27722;SDS011;15123;-37.794;175.246;2023-08-31T18:31:27;16.65;;;3.15;;
27722;SDS011;15123;-37.794;175.246;2023-08-31T18:34:57;12.00;;;2.25;;
27722;SDS011;15123;-37.794;175.246;2023-08-31T18:38:25;18.83;;;2.60;;
27722;SDS011;15123;-37.794;175.246;2023-08-31T18:41:49;15.52;;;3.88;;
27722;SDS011;15123;-37.794;175.246;2023-08-31T18:45:13;24.67;;;4.15;;
27722;SDS011;15123;-37.794;175.246;2023-08-31T18:48:34;18.17;;;3.05;;
27722;SDS011;15123;-37.794;175.246;2023-08-31T18:51:58;14.02;;;3.50;;
27722;SDS011;15123;-37.794;175.246;2023-08-31T18:55:22;8.55;;;2.78;;
27722;SDS011;15123;-37.794;175.246;2023-08-31T18:58:46;16.52;;;3.75;;
27722;SDS011;15123;-37.794;175.246;2023-08-31T19:02:10;8.65;;;2.90;;
27722;SDS011;15123;-37.794;175.246;2023-08-31T19:05:37;7.05;;;2.65;;
27722;SDS011;15123;-37.794;175.246;2023-08-31T19:09:04;8.25;;;2.20;;
27722;SDS011;15123;-37.794;175.246;2023-08-31T19:12:29;7.50;;;1.70;;
27722;SDS011;15123;-37.794;175.246;2023-08-31T19:15:55;6.72;;;1.88;;
27722;SDS011;15123;-37.794;175.246;2023-08-31T19:19:19;8.90;;;2.20;;
27722;SDS011;15123;-37.794;175.246;2023-08-31T19:22:43;12.05;;;2.50;;
27722;SDS011;15123;-37.794;175.246;2023-08-31T19:26:09;12.07;;;2.20;;
27722;SDS011;15123;-37.794;175.246;2023-08-31T19:29:33;8.55;;;1.50;;
27722;SDS011;15123;-37.794;175.246;2023-08-31T19:32:58;8.35;;;1.80;;
27722;SDS011;15123;-37.794;175.246;2023-08-31T19:36:23;13.50;;;1.70;;